sensor_id;sensor_type;location;lat;lon;timestamp;P1;durP1;ratioP1;P2;durP2;ratioP2
76210;SDS011;65003;49.518;11.280;2023-08-24T00:00:57;5.80;;;4.33;;
76210;SDS011;65003;49.518;11.280;2023-08-24T00:03:24;6.33;;;4.23;;
76210;SDS011;65003;49.518;11.280;2023-08-24T00:05:50;8.33;;;4.53;;
76210;SDS011;65003;49.518;11.280;2023-08-24T00:08:17;4.97;;;3.73;;
76210;SDS011;65003;49.518;11.280;2023-08-24T00:10:44;7.20;;;3.60;;
76210;SDS011;65003;49.518;11.280;2023-08-24T00:13:12;4.97;;;4.37;;
76210;SDS011;65003;49.518;11.280;2023-08-24T00:15:38;7.47;;;4.67;;
76210;SDS011;65003;49.518;11.280;2023-08-24T00:18:05;4.90;;;4.03;;
76210;SDS011;65003;49.518;11.280;2023-08-24T00:20:32;6.67;;;4.07;;
76210;SDS011;65003;49.518;11.280;2023-08-24T00:22:59;6.43;;;4.07;;
76210;SDS011;65003;49.518;11.280;2023-08-24T00:25:25;6.63;;;4.07;;
76210;SDS011;65003;49.518;11.280;2023-08-24T00:27:53;5.27;;;4.77;;
76210;SDS011;65003;49.518;11.280;2023-08-24T00:30:18;6.97;;;4.90;;
76210;SDS011;65003;49.518;11.280;2023-08-24T00:32:45;4.90;;;4.20;;
76210;SDS011;65003;49.518;11.280;2023-08-24T00:35:12;7.40;;;4.30;;
76210;SDS011;65003;49.518;11.280;2023-08-24T00:37:38;6.40;;;4.27;;
76210;SDS011;65003;49.518;11.280;2023-08-24T00:40:05;5.83;;;4.00;;
76210;SDS011;65003;49.518;11.280;2023-08-24T00:42:37;4.67;;;4.23;;
76210;SDS011;65003;49.518;11.280;2023-08-24T00:45:05;4.57;;;4.17;;
76210;SDS011;65003;49.518;11.280;2023-08-24T00:47:32;5.27;;;4.50;;
76210;SDS011;65003;49.518;11.280;2023-08-24T00:49:59;6.30;;;4.27;;
76210;SDS011;65003;49.518;11.280;2023-08-24T00:52:25;4.37;;;3.93;;
76210;SDS011;65003;49.518;11.280;2023-08-24T00:54:52;4.90;;;4.10;;
76210;SDS011;65003;49.518;11.280;2023-08-24T00:57:19;4.70;;;3.80;;
76210;SDS011;65003;49.518;11.280;2023-08-24T00:59:45;6.30;;;4.43;;
76210;SDS011;65003;49.518;11.280;2023-08-24T01:02:12;5.20;;;4.70;;
76210;SDS011;65003;49.518;11.280;2023-08-24T01:04:40;6.90;;;4.00;;
76210;SDS011;65003;49.518;11.280;2023-08-24T01:07:05;5.77;;;4.10;;
76210;SDS011;65003;49.518;11.280;2023-08-24T01:09:32;6.43;;;4.27;;
76210;SDS011;65003;49.518;11.280;2023-08-24T01:12:00;7.53;;;4.27;;
76210;SDS011;65003;49.518;11.280;2023-08-24T01:14:36;8.70;;;4.50;;
76210;SDS011;65003;49.518;11.280;2023-08-24T01:17:10;6.67;;;4.33;;
76210;SDS011;65003;49.518;11.280;2023-08-24T01:19:38;5.27;;;4.17;;
76210;SDS011;65003;49.518;11.280;2023-08-24T01:22:05;5.90;;;4.30;;
76210;SDS011;65003;49.518;11.280;2023-08-24T01:24:35;5.43;;;4.13;;
76210;SDS011;65003;49.518;11.280;2023-08-24T01:27:00;4.53;;;3.77;;
76210;SDS011;65003;49.518;11.280;2023-08-24T01:29:27;7.93;;;4.37;;
76210;SDS011;65003;49.518;11.280;2023-08-24T01:31:54;7.53;;;4.23;;
76210;SDS011;65003;49.518;11.280;2023-08-24T01:34:20;5.50;;;4.50;;
76210;SDS011;65003;49.518;11.280;2023-08-24T01:36:47;5.27;;;4.37;;
76210;SDS011;65003;49.518;11.280;2023-08-24T01:39:27;6.03;;;4.40;;
76210;SDS011;65003;49.518;11.280;2023-08-24T01:41:55;5.70;;;4.40;;
76210;SDS011;65003;49.518;11.280;2023-08-24T01:44:21;5.20;;;4.53;;
76210;SDS011;65003;49.518;11.280;2023-08-24T01:46:48;4.40;;;3.20;;
76210;SDS011;65003;49.518;11.280;2023-08-24T01:49:18;4.40;;;4.00;;
76210;SDS011;65003;49.518;11.280;2023-08-24T01:51:42;7.03;;;4.20;;
76210;SDS011;65003;49.518;11.280;2023-08-24T01:54:07;4.73;;;4.30;;
76210;SDS011;65003;49.518;11.280;2023-08-24T01:56:34;4.73;;;4.03;;
76210;SDS011;65003;49.518;11.280;2023-08-24T01:59:01;4.83;;;4.07;;
76210;SDS011;65003;49.518;11.280;2023-08-24T02:01:27;4.73;;;4.20;;
76210;SDS011;65003;49.518;11.280;2023-08-24T02:03:54;4.77;;;4.30;;
76210;SDS011;65003;49.518;11.280;2023-08-24T02:06:20;7.17;;;4.40;;
76210;SDS011;65003;49.518;11.280;2023-08-24T02:08:47;4.70;;;4.30;;
76210;SDS011;65003;49.518;11.280;2023-08-24T02:11:14;4.20;;;3.90;;
76210;SDS011;65003;49.518;11.280;2023-08-24T02:13:40;4.93;;;4.53;;
76210;SDS011;65003;49.518;11.280;2023-08-24T02:16:07;6.57;;;4.27;;
76210;SDS011;65003;49.518;11.280;2023-08-24T02:18:33;5.33;;;4.00;;
76210;SDS011;65003;49.518;11.280;2023-08-24T02:21:00;5.57;;;4.47;;
76210;SDS011;65003;49.518;11.280;2023-08-24T02:23:27;5.63;;;4.50;;
76210;SDS011;65003;49.518;11.280;2023-08-24T02:25:53;6.47;;;4.13;;
76210;SDS011;65003;49.518;11.280;2023-08-24T02:28:20;5.13;;;4.53;;
76210;SDS011;65003;49.518;11.280;2023-08-24T02:30:46;7.53;;;4.93;;
76210;SDS011;65003;49.518;11.280;2023-08-24T02:33:13;4.60;;;4.20;;
76210;SDS011;65003;49.518;11.280;2023-08-24T02:35:40;6.27;;;4.30;;
76210;SDS011;65003;49.518;11.280;2023-08-24T02:38:06;8.73;;;4.67;;
76210;SDS011;65003;49.518;11.280;2023-08-24T02:40:33;7.43;;;5.83;;
76210;SDS011;65003;49.518;11.280;2023-08-24T02:42:59;4.90;;;4.20;;
76210;SDS011;65003;49.518;11.280;2023-08-24T02:45:26;4.77;;;4.37;;
76210;SDS011;65003;49.518;11.280;2023-08-24T02:47:53;6.00;;;4.73;;
76210;SDS011;65003;49.518;11.280;2023-08-24T02:50:19;5.60;;;4.10;;
76210;SDS011;65003;49.518;11.280;2023-08-24T02:52:46;5.03;;;4.50;;
76210;SDS011;65003;49.518;11.280;2023-08-24T02:55:12;4.77;;;4.17;;
76210;SDS011;65003;49.518;11.280;2023-08-24T02:57:39;6.63;;;3.63;;
76210;SDS011;65003;49.518;11.280;2023-08-24T03:00:06;4.50;;;4.03;;
76210;SDS011;65003;49.518;11.280;2023-08-24T03:02:33;4.40;;;4.00;;
76210;SDS011;65003;49.518;11.280;2023-08-24T03:05:00;4.80;;;4.27;;
76210;SDS011;65003;49.518;11.280;2023-08-24T03:07:27;10.97;;;4.70;;
76210;SDS011;65003;49.518;11.280;2023-08-24T03:09:53;4.27;;;3.90;;
76210;SDS011;65003;49.518;11.280;2023-08-24T03:12:20;6.33;;;4.40;;
76210;SDS011;65003;49.518;11.280;2023-08-24T03:14:46;4.83;;;4.03;;
76210;SDS011;65003;49.518;11.280;2023-08-24T03:17:13;6.83;;;4.07;;
76210;SDS011;65003;49.518;11.280;2023-08-24T03:19:40;5.50;;;4.00;;
76210;SDS011;65003;49.518;11.280;2023-08-24T03:22:06;6.40;;;3.47;;
76210;SDS011;65003;49.518;11.280;2023-08-24T03:24:33;5.77;;;3.73;;
76210;SDS011;65003;49.518;11.280;2023-08-24T03:27:00;4.67;;;4.10;;
76210;SDS011;65003;49.518;11.280;2023-08-24T03:29:26;4.17;;;3.83;;
76210;SDS011;65003;49.518;11.280;2023-08-24T03:31:53;5.47;;;3.80;;
76210;SDS011;65003;49.518;11.280;2023-08-24T03:34:19;3.97;;;3.43;;
76210;SDS011;65003;49.518;11.280;2023-08-24T03:36:46;5.47;;;4.07;;
76210;SDS011;65003;49.518;11.280;2023-08-24T03:39:13;4.33;;;4.00;;
76210;SDS011;65003;49.518;11.280;2023-08-24T03:41:39;5.53;;;4.23;;
76210;SDS011;65003;49.518;11.280;2023-08-24T03:44:06;6.23;;;4.07;;
76210;SDS011;65003;49.518;11.280;2023-08-24T03:46:32;6.37;;;4.13;;
76210;SDS011;65003;49.518;11.280;2023-08-24T03:49:00;7.43;;;4.50;;
76210;SDS011;65003;49.518;11.280;2023-08-24T03:51:27;6.07;;;4.57;;
76210;SDS011;65003;49.518;11.280;2023-08-24T03:53:53;7.00;;;4.23;;
76210;SDS011;65003;49.518;11.280;2023-08-24T03:56:20;5.17;;;4.27;;
76210;SDS011;65003;49.518;11.280;2023-08-24T03:58:46;6.03;;;4.27;;
76210;SDS011;65003;49.518;11.280;2023-08-24T04:01:13;5.97;;;4.43;;
76210;SDS011;65003;49.518;11.280;2023-08-24T04:03:40;5.20;;;4.70;;
76210;SDS011;65003;49.518;11.280;2023-08-24T04:06:06;5.23;;;4.73;;
76210;SDS011;65003;49.518;11.280;2023-08-24T04:08:33;5.20;;;4.47;;
76210;SDS011;65003;49.518;11.280;2023-08-24T04:11:00;5.03;;;4.30;;
76210;SDS011;65003;49.518;11.280;2023-08-24T04:13:26;5.50;;;5.00;;
76210;SDS011;65003;49.518;11.280;2023-08-24T04:15:53;6.23;;;4.53;;
76210;SDS011;65003;49.518;11.280;2023-08-24T04:18:19;4.77;;;4.17;;
76210;SDS011;65003;49.518;11.280;2023-08-24T04:20:46;6.57;;;4.57;;
76210;SDS011;65003;49.518;11.280;2023-08-24T04:23:13;4.80;;;4.40;;
76210;SDS011;65003;49.518;11.280;2023-08-24T04:25:40;4.57;;;4.17;;
76210;SDS011;65003;49.518;11.280;2023-08-24T04:28:06;5.60;;;4.73;;
76210;SDS011;65003;49.518;11.280;2023-08-24T04:30:32;6.00;;;4.70;;
76210;SDS011;65003;49.518;11.280;2023-08-24T04:32:59;6.63;;;4.40;;
76210;SDS011;65003;49.518;11.280;2023-08-24T04:35:25;6.63;;;5.00;;
76210;SDS011;65003;49.518;11.280;2023-08-24T04:37:52;5.00;;;4.60;;
76210;SDS011;65003;49.518;11.280;2023-08-24T04:40:19;5.47;;;4.97;;
76210;SDS011;65003;49.518;11.280;2023-08-24T04:42:45;5.90;;;4.77;;
76210;SDS011;65003;49.518;11.280;2023-08-24T04:45:12;6.37;;;4.87;;
76210;SDS011;65003;49.518;11.280;2023-08-24T04:47:38;5.07;;;4.40;;
76210;SDS011;65003;49.518;11.280;2023-08-24T04:50:05;5.13;;;4.37;;
76210;SDS011;65003;49.518;11.280;2023-08-24T04:52:33;5.27;;;4.37;;
76210;SDS011;65003;49.518;11.280;2023-08-24T04:54:59;4.77;;;4.10;;
76210;SDS011;65003;49.518;11.280;2023-08-24T04:57:26;5.17;;;4.67;;
76210;SDS011;65003;49.518;11.280;2023-08-24T04:59:52;4.93;;;4.43;;
76210;SDS011;65003;49.518;11.280;2023-08-24T05:02:19;5.30;;;4.80;;
76210;SDS011;65003;49.518;11.280;2023-08-24T05:04:46;6.60;;;4.90;;
76210;SDS011;65003;49.518;11.280;2023-08-24T05:07:12;8.37;;;4.93;;
76210;SDS011;65003;49.518;11.280;2023-08-24T05:09:39;4.43;;;4.13;;
76210;SDS011;65003;49.518;11.280;2023-08-24T05:12:05;4.70;;;4.30;;
76210;SDS011;65003;49.518;11.280;2023-08-24T05:14:32;4.80;;;4.30;;
76210;SDS011;65003;49.518;11.280;2023-08-24T05:16:59;5.37;;;4.80;;
76210;SDS011;65003;49.518;11.280;2023-08-24T05:19:25;6.77;;;4.80;;
76210;SDS011;65003;49.518;11.280;2023-08-24T05:21:52;8.33;;;4.47;;
76210;SDS011;65003;49.518;11.280;2023-08-24T05:24:19;5.03;;;4.43;;
76210;SDS011;65003;49.518;11.280;2023-08-24T05:26:45;4.70;;;4.23;;
76210;SDS011;65003;49.518;11.280;2023-08-24T05:29:12;5.13;;;4.20;;
76210;SDS011;65003;49.518;11.280;2023-08-24T05:31:38;5.50;;;4.40;;
76210;SDS011;65003;49.518;11.280;2023-08-24T05:34:05;5.67;;;4.33;;
76210;SDS011;65003;49.518;11.280;2023-08-24T05:36:32;5.47;;;4.00;;
76210;SDS011;65003;49.518;11.280;2023-08-24T05:38:58;7.67;;;4.13;;
76210;SDS011;65003;49.518;11.280;2023-08-24T05:41:25;6.07;;;4.40;;
76210;SDS011;65003;49.518;11.280;2023-08-24T05:43:51;5.43;;;4.33;;
76210;SDS011;65003;49.518;11.280;2023-08-24T05:46:18;4.10;;;3.43;;
76210;SDS011;65003;49.518;11.280;2023-08-24T05:48:45;5.93;;;3.63;;
76210;SDS011;65003;49.518;11.280;2023-08-24T05:51:11;6.60;;;3.40;;
76210;SDS011;65003;49.518;11.280;2023-08-24T05:53:38;7.23;;;3.40;;
76210;SDS011;65003;49.518;11.280;2023-08-24T05:56:04;4.50;;;3.40;;
76210;SDS011;65003;49.518;11.280;2023-08-24T05:58:31;4.57;;;4.10;;
76210;SDS011;65003;49.518;11.280;2023-08-24T06:00:58;4.13;;;3.47;;
76210;SDS011;65003;49.518;11.280;2023-08-24T06:03:25;6.10;;;2.87;;
76210;SDS011;65003;49.518;11.280;2023-08-24T06:05:51;4.47;;;3.17;;
76210;SDS011;65003;49.518;11.280;2023-08-24T06:08:17;4.50;;;3.00;;
76210;SDS011;65003;49.518;11.280;2023-08-24T06:10:44;7.47;;;3.37;;
76210;SDS011;65003;49.518;11.280;2023-08-24T06:13:11;4.00;;;2.80;;
76210;SDS011;65003;49.518;11.280;2023-08-24T06:15:37;3.80;;;2.77;;
76210;SDS011;65003;49.518;11.280;2023-08-24T06:18:04;3.13;;;2.70;;
76210;SDS011;65003;49.518;11.280;2023-08-24T06:20:30;4.37;;;2.63;;
76210;SDS011;65003;49.518;11.280;2023-08-24T06:22:57;4.23;;;3.13;;
76210;SDS011;65003;49.518;11.280;2023-08-24T06:25:24;4.77;;;3.17;;
76210;SDS011;65003;49.518;11.280;2023-08-24T06:27:50;4.47;;;3.33;;
76210;SDS011;65003;49.518;11.280;2023-08-24T06:30:17;4.27;;;3.13;;
76210;SDS011;65003;49.518;11.280;2023-08-24T06:32:43;6.70;;;3.60;;
76210;SDS011;65003;49.518;11.280;2023-08-24T06:35:11;3.87;;;3.27;;
76210;SDS011;65003;49.518;11.280;2023-08-24T06:37:38;7.70;;;3.30;;
76210;SDS011;65003;49.518;11.280;2023-08-24T06:40:05;7.20;;;3.63;;
76210;SDS011;65003;49.518;11.280;2023-08-24T06:42:32;9.80;;;3.37;;
76210;SDS011;65003;49.518;11.280;2023-08-24T06:44:58;5.33;;;3.40;;
76210;SDS011;65003;49.518;11.280;2023-08-24T06:47:25;4.30;;;3.20;;
76210;SDS011;65003;49.518;11.280;2023-08-24T06:49:51;5.27;;;3.10;;
76210;SDS011;65003;49.518;11.280;2023-08-24T06:52:18;5.27;;;3.30;;
76210;SDS011;65003;49.518;11.280;2023-08-24T06:54:44;4.83;;;3.83;;
76210;SDS011;65003;49.518;11.280;2023-08-24T06:57:11;4.67;;;3.70;;
76210;SDS011;65003;49.518;11.280;2023-08-24T06:59:38;6.67;;;3.70;;
76210;SDS011;65003;49.518;11.280;2023-08-24T07:02:04;6.40;;;3.73;;
76210;SDS011;65003;49.518;11.280;2023-08-24T07:04:31;6.17;;;3.60;;
76210;SDS011;65003;49.518;11.280;2023-08-24T07:06:57;4.60;;;3.43;;
76210;SDS011;65003;49.518;11.280;2023-08-24T07:09:24;3.93;;;2.97;;
76210;SDS011;65003;49.518;11.280;2023-08-24T07:11:51;4.70;;;3.00;;
76210;SDS011;65003;49.518;11.280;2023-08-24T07:14:17;5.37;;;3.03;;
76210;SDS011;65003;49.518;11.280;2023-08-24T07:16:44;4.83;;;3.03;;
76210;SDS011;65003;49.518;11.280;2023-08-24T07:19:10;4.20;;;2.90;;
76210;SDS011;65003;49.518;11.280;2023-08-24T07:21:37;3.17;;;2.47;;
76210;SDS011;65003;49.518;11.280;2023-08-24T07:24:04;2.93;;;2.60;;
76210;SDS011;65003;49.518;11.280;2023-08-24T07:26:30;5.53;;;2.80;;
76210;SDS011;65003;49.518;11.280;2023-08-24T07:28:57;5.77;;;2.80;;
76210;SDS011;65003;49.518;11.280;2023-08-24T07:31:23;3.23;;;2.57;;
76210;SDS011;65003;49.518;11.280;2023-08-24T07:33:50;4.13;;;2.87;;
76210;SDS011;65003;49.518;11.280;2023-08-24T07:36:17;4.90;;;3.00;;
76210;SDS011;65003;49.518;11.280;2023-08-24T07:38:44;4.23;;;2.90;;
76210;SDS011;65003;49.518;11.280;2023-08-24T07:41:10;3.43;;;3.23;;
76210;SDS011;65003;49.518;11.280;2023-08-24T07:43:36;3.17;;;2.87;;
76210;SDS011;65003;49.518;11.280;2023-08-24T07:46:03;4.07;;;2.93;;
76210;SDS011;65003;49.518;11.280;2023-08-24T07:48:30;2.93;;;2.73;;
76210;SDS011;65003;49.518;11.280;2023-08-24T07:50:56;3.30;;;3.00;;
76210;SDS011;65003;49.518;11.280;2023-08-24T07:53:23;5.70;;;3.37;;
76210;SDS011;65003;49.518;11.280;2023-08-24T07:55:49;3.50;;;3.20;;
76210;SDS011;65003;49.518;11.280;2023-08-24T07:58:16;3.13;;;2.70;;
76210;SDS011;65003;49.518;11.280;2023-08-24T08:00:43;3.43;;;2.70;;
76210;SDS011;65003;49.518;11.280;2023-08-24T08:03:09;2.90;;;2.50;;
76210;SDS011;65003;49.518;11.280;2023-08-24T08:05:36;3.73;;;2.67;;
76210;SDS011;65003;49.518;11.280;2023-08-24T08:08:03;3.93;;;2.43;;
76210;SDS011;65003;49.518;11.280;2023-08-24T08:10:30;2.80;;;2.20;;
76210;SDS011;65003;49.518;11.280;2023-08-24T08:12:56;2.58;;;2.10;;
76210;SDS011;65003;49.518;11.280;2023-08-24T08:15:23;2.52;;;2.33;;
76210;SDS011;65003;49.518;11.280;2023-08-24T08:17:49;2.80;;;2.60;;
76210;SDS011;65003;49.518;11.280;2023-08-24T08:20:16;4.87;;;3.00;;
76210;SDS011;65003;49.518;11.280;2023-08-24T08:22:43;3.90;;;2.40;;
76210;SDS011;65003;49.518;11.280;2023-08-24T08:25:10;4.87;;;2.52;;
76210;SDS011;65003;49.518;11.280;2023-08-24T08:27:36;3.08;;;2.20;;
76210;SDS011;65003;49.518;11.280;2023-08-24T08:30:03;6.10;;;2.17;;
76210;SDS011;65003;49.518;11.280;2023-08-24T08:32:31;3.98;;;1.85;;
76210;SDS011;65003;49.518;11.280;2023-08-24T08:34:58;2.47;;;2.27;;
76210;SDS011;65003;49.518;11.280;2023-08-24T08:37:25;3.72;;;2.20;;
76210;SDS011;65003;49.518;11.280;2023-08-24T08:39:51;4.35;;;2.02;;
76210;SDS011;65003;49.518;11.280;2023-08-24T08:42:18;3.08;;;1.95;;
76210;SDS011;65003;49.518;11.280;2023-08-24T08:44:46;6.80;;;1.98;;
76210;SDS011;65003;49.518;11.280;2023-08-24T08:47:12;4.80;;;2.00;;
76210;SDS011;65003;49.518;11.280;2023-08-24T08:49:39;3.40;;;1.87;;
76210;SDS011;65003;49.518;11.280;2023-08-24T08:52:05;3.95;;;1.98;;
76210;SDS011;65003;49.518;11.280;2023-08-24T08:54:32;4.90;;;1.70;;
76210;SDS011;65003;49.518;11.280;2023-08-24T08:56:59;3.50;;;1.90;;
76210;SDS011;65003;49.518;11.280;2023-08-24T08:59:27;6.37;;;1.87;;
76210;SDS011;65003;49.518;11.280;2023-08-24T09:01:52;3.02;;;1.95;;
76210;SDS011;65003;49.518;11.280;2023-08-24T09:04:19;2.50;;;1.90;;
76210;SDS011;65003;49.518;11.280;2023-08-24T09:06:45;4.72;;;2.35;;
76210;SDS011;65003;49.518;11.280;2023-08-24T09:09:12;3.98;;;1.70;;
76210;SDS011;65003;49.518;11.280;2023-08-24T09:11:39;3.62;;;1.70;;
76210;SDS011;65003;49.518;11.280;2023-08-24T09:14:05;3.27;;;1.85;;
76210;SDS011;65003;49.518;11.280;2023-08-24T09:16:32;3.42;;;2.08;;
76210;SDS011;65003;49.518;11.280;2023-08-24T09:18:58;5.62;;;1.90;;
76210;SDS011;65003;49.518;11.280;2023-08-24T09:21:25;1.72;;;1.62;;
76210;SDS011;65003;49.518;11.280;2023-08-24T09:23:53;5.35;;;1.77;;
76210;SDS011;65003;49.518;11.280;2023-08-24T09:26:27;2.60;;;1.67;;
76210;SDS011;65003;49.518;11.280;2023-08-24T09:28:54;3.60;;;1.70;;
76210;SDS011;65003;49.518;11.280;2023-08-24T09:31:22;3.95;;;2.25;;
76210;SDS011;65003;49.518;11.280;2023-08-24T09:33:48;4.47;;;2.05;;
76210;SDS011;65003;49.518;11.280;2023-08-24T09:36:14;2.70;;;2.37;;
76210;SDS011;65003;49.518;11.280;2023-08-24T09:38:46;16.40;;;4.08;;
76210;SDS011;65003;49.518;11.280;2023-08-24T09:41:15;4.35;;;2.92;;
76210;SDS011;65003;49.518;11.280;2023-08-24T09:43:41;9.08;;;3.42;;
76210;SDS011;65003;49.518;11.280;2023-08-24T09:46:08;3.08;;;2.58;;
76210;SDS011;65003;49.518;11.280;2023-08-24T09:48:35;3.17;;;2.55;;
76210;SDS011;65003;49.518;11.280;2023-08-24T09:51:03;4.07;;;2.50;;
76210;SDS011;65003;49.518;11.280;2023-08-24T09:53:28;2.37;;;2.17;;
76210;SDS011;65003;49.518;11.280;2023-08-24T09:55:55;3.13;;;2.43;;
76210;SDS011;65003;49.518;11.280;2023-08-24T09:58:22;4.85;;;2.22;;
76210;SDS011;65003;49.518;11.280;2023-08-24T10:00:48;6.62;;;2.95;;
76210;SDS011;65003;49.518;11.280;2023-08-24T10:03:16;4.47;;;2.37;;
76210;SDS011;65003;49.518;11.280;2023-08-24T10:05:42;5.08;;;2.45;;
76210;SDS011;65003;49.518;11.280;2023-08-24T10:08:09;3.42;;;2.10;;
76210;SDS011;65003;49.518;11.280;2023-08-24T10:10:35;3.60;;;2.10;;
76210;SDS011;65003;49.518;11.280;2023-08-24T10:13:04;4.33;;;1.85;;
76210;SDS011;65003;49.518;11.280;2023-08-24T10:15:28;2.55;;;2.17;;
76210;SDS011;65003;49.518;11.280;2023-08-24T10:17:55;3.80;;;2.10;;
76210;SDS011;65003;49.518;11.280;2023-08-24T10:20:22;2.37;;;1.80;;
76210;SDS011;65003;49.518;11.280;2023-08-24T10:22:48;2.77;;;1.77;;
76210;SDS011;65003;49.518;11.280;2023-08-24T10:25:15;5.10;;;2.02;;
76210;SDS011;65003;49.518;11.280;2023-08-24T10:27:41;3.77;;;2.10;;
76210;SDS011;65003;49.518;11.280;2023-08-24T10:30:09;2.10;;;1.90;;
76210;SDS011;65003;49.518;11.280;2023-08-24T10:32:36;2.47;;;2.20;;
76210;SDS011;65003;49.518;11.280;2023-08-24T10:35:02;3.35;;;1.90;;
76210;SDS011;65003;49.518;11.280;2023-08-24T10:37:29;1.90;;;1.80;;
76210;SDS011;65003;49.518;11.280;2023-08-24T10:39:56;2.27;;;1.85;;
76210;SDS011;65003;49.518;11.280;2023-08-24T10:42:22;3.05;;;1.82;;
76210;SDS011;65003;49.518;11.280;2023-08-24T10:44:49;3.60;;;1.72;;
76210;SDS011;65003;49.518;11.280;2023-08-24T10:47:19;2.57;;;1.67;;
76210;SDS011;65003;49.518;11.280;2023-08-24T10:49:56;4.33;;;1.85;;
76210;SDS011;65003;49.518;11.280;2023-08-24T10:52:17;1.82;;;1.60;;
76210;SDS011;65003;49.518;11.280;2023-08-24T10:54:44;4.17;;;1.95;;
76210;SDS011;65003;49.518;11.280;2023-08-24T10:57:19;4.00;;;1.90;;
76210;SDS011;65003;49.518;11.280;2023-08-24T10:59:57;4.97;;;2.37;;
76210;SDS011;65003;49.518;11.280;2023-08-24T11:02:19;3.83;;;2.13;;
76210;SDS011;65003;49.518;11.280;2023-08-24T11:07:25;2.60;;;1.85;;
76210;SDS011;65003;49.518;11.280;2023-08-24T11:09:51;3.80;;;1.87;;
76210;SDS011;65003;49.518;11.280;2023-08-24T11:12:18;6.35;;;2.25;;
76210;SDS011;65003;49.518;11.280;2023-08-24T11:14:49;5.08;;;1.82;;
76210;SDS011;65003;49.518;11.280;2023-08-24T11:17:17;4.12;;;2.55;;
76210;SDS011;65003;49.518;11.280;2023-08-24T11:19:49;4.83;;;2.80;;
76210;SDS011;65003;49.518;11.280;2023-08-24T11:22:16;2.65;;;2.45;;
76210;SDS011;65003;49.518;11.280;2023-08-24T11:24:42;5.67;;;3.45;;
76210;SDS011;65003;49.518;11.280;2023-08-24T11:27:09;3.50;;;2.80;;
76210;SDS011;65003;49.518;11.280;2023-08-24T11:29:35;3.67;;;3.00;;
76210;SDS011;65003;49.518;11.280;2023-08-24T11:32:02;7.45;;;2.72;;
76210;SDS011;65003;49.518;11.280;2023-08-24T11:34:30;6.75;;;2.77;;
76210;SDS011;65003;49.518;11.280;2023-08-24T11:36:56;2.90;;;2.70;;
76210;SDS011;65003;49.518;11.280;2023-08-24T11:39:23;6.75;;;2.90;;
76210;SDS011;65003;49.518;11.280;2023-08-24T11:41:56;6.62;;;2.90;;
76210;SDS011;65003;49.518;11.280;2023-08-24T11:44:22;5.07;;;2.30;;
76210;SDS011;65003;49.518;11.280;2023-08-24T11:46:49;2.80;;;2.50;;
76210;SDS011;65003;49.518;11.280;2023-08-24T11:49:15;4.90;;;2.60;;
76210;SDS011;65003;49.518;11.280;2023-08-24T11:51:42;5.83;;;2.77;;
76210;SDS011;65003;49.518;11.280;2023-08-24T11:54:08;3.07;;;2.57;;
76210;SDS011;65003;49.518;11.280;2023-08-24T11:56:40;7.40;;;2.90;;
76210;SDS011;65003;49.518;11.280;2023-08-24T11:59:10;4.30;;;2.67;;
76210;SDS011;65003;49.518;11.280;2023-08-24T12:01:37;3.13;;;2.83;;
76210;SDS011;65003;49.518;11.280;2023-08-24T12:04:03;3.83;;;2.80;;
76210;SDS011;65003;49.518;11.280;2023-08-24T12:06:30;3.63;;;2.73;;
76210;SDS011;65003;49.518;11.280;2023-08-24T12:08:57;4.10;;;2.50;;
76210;SDS011;65003;49.518;11.280;2023-08-24T12:11:23;4.63;;;2.70;;
76210;SDS011;65003;49.518;11.280;2023-08-24T12:13:51;3.47;;;2.50;;
76210;SDS011;65003;49.518;11.280;2023-08-24T12:16:17;3.47;;;2.40;;
76210;SDS011;65003;49.518;11.280;2023-08-24T12:18:46;4.30;;;2.93;;
76210;SDS011;65003;49.518;11.280;2023-08-24T12:21:12;2.93;;;2.63;;
76210;SDS011;65003;49.518;11.280;2023-08-24T12:23:39;3.27;;;2.50;;
76210;SDS011;65003;49.518;11.280;2023-08-24T12:26:06;6.63;;;3.00;;
76210;SDS011;65003;49.518;11.280;2023-08-24T12:28:32;4.63;;;2.93;;
76210;SDS011;65003;49.518;11.280;2023-08-24T12:30:59;6.50;;;2.53;;
76210;SDS011;65003;49.518;11.280;2023-08-24T12:33:27;3.50;;;2.50;;
76210;SDS011;65003;49.518;11.280;2023-08-24T12:35:53;6.87;;;3.13;;
76210;SDS011;65003;49.518;11.280;2023-08-24T12:38:19;5.20;;;2.83;;
76210;SDS011;65003;49.518;11.280;2023-08-24T12:40:46;3.83;;;2.77;;
76210;SDS011;65003;49.518;11.280;2023-08-24T12:43:13;3.90;;;2.70;;
76210;SDS011;65003;49.518;11.280;2023-08-24T12:45:39;3.30;;;2.90;;
76210;SDS011;65003;49.518;11.280;2023-08-24T12:48:06;4.40;;;2.63;;
76210;SDS011;65003;49.518;11.280;2023-08-24T12:50:35;3.83;;;2.77;;
76210;SDS011;65003;49.518;11.280;2023-08-24T12:53:02;5.10;;;3.20;;
76210;SDS011;65003;49.518;11.280;2023-08-24T12:55:28;8.20;;;2.73;;
76210;SDS011;65003;49.518;11.280;2023-08-24T12:57:55;3.63;;;2.53;;
76210;SDS011;65003;49.518;11.280;2023-08-24T13:00:21;5.47;;;3.10;;
76210;SDS011;65003;49.518;11.280;2023-08-24T13:02:48;6.50;;;2.63;;
76210;SDS011;65003;49.518;11.280;2023-08-24T13:05:15;6.00;;;3.20;;
76210;SDS011;65003;49.518;11.280;2023-08-24T13:07:41;4.20;;;2.40;;
76210;SDS011;65003;49.518;11.280;2023-08-24T13:10:08;2.87;;;2.60;;
76210;SDS011;65003;49.518;11.280;2023-08-24T13:12:35;3.27;;;2.60;;
76210;SDS011;65003;49.518;11.280;2023-08-24T13:15:02;6.50;;;2.73;;
76210;SDS011;65003;49.518;11.280;2023-08-24T13:17:30;4.43;;;2.87;;
76210;SDS011;65003;49.518;11.280;2023-08-24T13:19:57;5.60;;;3.30;;
76210;SDS011;65003;49.518;11.280;2023-08-24T13:22:23;3.07;;;2.77;;
76210;SDS011;65003;49.518;11.280;2023-08-24T13:24:50;3.13;;;2.43;;
76210;SDS011;65003;49.518;11.280;2023-08-24T13:27:16;3.70;;;3.30;;
76210;SDS011;65003;49.518;11.280;2023-08-24T13:29:43;3.10;;;2.70;;
76210;SDS011;65003;49.518;11.280;2023-08-24T13:32:10;3.70;;;2.60;;
76210;SDS011;65003;49.518;11.280;2023-08-24T13:34:37;3.43;;;2.37;;
76210;SDS011;65003;49.518;11.280;2023-08-24T13:37:03;4.00;;;2.87;;
76210;SDS011;65003;49.518;11.280;2023-08-24T13:39:30;7.03;;;2.73;;
76210;SDS011;65003;49.518;11.280;2023-08-24T13:41:56;6.53;;;2.80;;
76210;SDS011;65003;49.518;11.280;2023-08-24T13:44:23;8.27;;;2.77;;
76210;SDS011;65003;49.518;11.280;2023-08-24T13:46:50;6.70;;;3.33;;
76210;SDS011;65003;49.518;11.280;2023-08-24T13:49:18;4.83;;;2.60;;
76210;SDS011;65003;49.518;11.280;2023-08-24T13:51:44;5.47;;;3.07;;
76210;SDS011;65003;49.518;11.280;2023-08-24T13:54:13;4.10;;;2.70;;
76210;SDS011;65003;49.518;11.280;2023-08-24T13:56:40;4.90;;;2.83;;
76210;SDS011;65003;49.518;11.280;2023-08-24T13:59:07;7.77;;;3.00;;
76210;SDS011;65003;49.518;11.280;2023-08-24T14:01:33;6.57;;;2.87;;
76210;SDS011;65003;49.518;11.280;2023-08-24T14:04:01;2.77;;;2.30;;
76210;SDS011;65003;49.518;11.280;2023-08-24T14:06:28;5.90;;;2.93;;
76210;SDS011;65003;49.518;11.280;2023-08-24T14:08:55;4.33;;;2.70;;
76210;SDS011;65003;49.518;11.280;2023-08-24T14:11:21;6.53;;;2.77;;
76210;SDS011;65003;49.518;11.280;2023-08-24T14:13:48;6.23;;;2.90;;
76210;SDS011;65003;49.518;11.280;2023-08-24T14:16:14;4.93;;;2.83;;
76210;SDS011;65003;49.518;11.280;2023-08-24T14:18:41;2.97;;;2.50;;
76210;SDS011;65003;49.518;11.280;2023-08-24T14:21:08;6.17;;;2.90;;
76210;SDS011;65003;49.518;11.280;2023-08-24T14:23:34;6.53;;;2.80;;
76210;SDS011;65003;49.518;11.280;2023-08-24T14:26:01;4.20;;;2.83;;
76210;SDS011;65003;49.518;11.280;2023-08-24T14:28:46;5.97;;;3.00;;
76210;SDS011;65003;49.518;11.280;2023-08-24T14:31:10;4.67;;;3.00;;
76210;SDS011;65003;49.518;11.280;2023-08-24T14:33:36;5.47;;;2.90;;